TimeAKST,TemperatureF,Dew PointF,Humidity,Sea Level PressureIn,VisibilityMPH,Wind Direction,Wind SpeedMPH,Gust SpeedMPH,PrecipitationIn,Events,Conditions,WindDirDegrees,DateUTC
12:06 AM,37.4,33.8,87,29.87,10.0,SSE,3.5,-,N/A,,Overcast,160,2013-12-15 09:06:00
12:53 AM,35.1,33.1,92,29.88,10.0,South,5.8,-,N/A,,Partly Cloudy,180,2013-12-15 09:53:00
1:53 AM,37.0,34.0,89,29.90,10.0,ESE,5.8,-,N/A,,Overcast,110,2013-12-15 10:53:00
3:53 AM,37.9,35.1,89,29.91,10.0,ESE,11.5,-,N/A,,Overcast,120,2013-12-15 12:53:00
4:08 AM,37.4,33.8,87,29.90,7.0,SE,11.5,-,0.01,Rain,Rain,130,2013-12-15 13:08:00
4:53 AM,37.0,35.1,93,29.90,10.0,SE,10.4,-,0.03,Rain,Light Rain,130,2013-12-15 13:53:00
5:53 AM,36.0,34.0,93,29.90,10.0,South,4.6,-,0.01,Rain,Light Rain,190,2013-12-15 14:53:00
6:03 AM,35.6,33.8,93,29.90,10.0,SSE,3.5,-,N/A,,Overcast,150,2013-12-15 15:03:00
6:06 AM,35.6,33.8,93,29.89,10.0,SE,8.1,-,N/A,,Overcast,140,2013-12-15 15:06:00
6:53 AM,36.0,35.1,97,29.89,10.0,SE,10.4,-,0.03,Rain,Light Rain,140,2013-12-15 15:53:00
7:53 AM,37.9,35.1,89,29.88,10.0,ESE,10.4,-,0.00,,Overcast,110,2013-12-15 16:53:00
8:53 AM,39.0,34.0,82,29.89,10.0,SE,6.9,-,N/A,,Overcast,140,2013-12-15 17:53:00
9:53 AM,39.9,34.0,79,29.91,10.0,ESE,6.9,-,0.02,,Overcast,110,2013-12-15 18:53:00
10:53 AM,39.9,33.1,77,29.93,10.0,SSE,3.5,-,N/A,,Overcast,160,2013-12-15 19:53:00
11:53 AM,37.9,33.1,83,29.95,2.5,SSW,4.6,-,0.04,Rain,Rain,200,2013-12-15 20:53:00
12:02 PM,37.4,33.8,87,29.95,4.0,SW,3.5,-,0.03,Rain,Heavy Rain,230,2013-12-15 21:02:00
12:53 PM,37.0,34.0,89,29.97,5.0,SE,3.5,-,0.08,Rain,Rain,130,2013-12-15 21:53:00
1:53 PM,37.0,36.0,96,29.98,9.0,Calm,Calm,-,0.01,Rain,Light Rain,0,2013-12-15 22:53:00
2:53 PM,36.0,33.1,89,29.99,10.0,SE,6.9,-,0.01,,Scattered Clouds,140,2013-12-15 23:53:00
3:53 PM,37.0,33.1,86,30.01,7.0,SSE,5.8,-,0.00,Rain,Light Rain,160,2013-12-16 00:53:00
4:53 PM,37.0,30.0,76,30.02,10.0,WSW,6.9,-,0.00,,Mostly Cloudy,250,2013-12-16 01:53:00
5:53 PM,35.1,32.0,89,30.04,10.0,SSE,8.1,-,N/A,,Mostly Cloudy,150,2013-12-16 02:53:00
6:53 PM,35.1,33.1,92,30.05,10.0,SE,5.8,-,0.00,,Overcast,130,2013-12-16 03:53:00
7:53 PM,35.1,33.1,92,30.06,10.0,SSE,6.9,-,0.00,Rain,Light Rain,150,2013-12-16 04:53:00
8:53 PM,35.1,34.0,96,30.09,10.0,SSE,5.8,-,0.00,,Mostly Cloudy,160,2013-12-16 05:53:00
9:26 PM,35.6,33.8,93,30.09,6.0,SE,4.6,-,0.02,Rain,Rain,130,2013-12-16 06:26:00
9:53 PM,35.1,33.1,92,30.10,10.0,SE,3.5,-,0.03,,Mostly Cloudy,140,2013-12-16 06:53:00
10:53 PM,36.0,33.1,89,30.12,10.0,SSE,3.5,-,N/A,,Overcast,150,2013-12-16 07:53:00
11:20 PM,35.6,33.8,93,30.12,10.0,ESE,5.8,-,N/A,,Overcast,110,2013-12-16 08:20:00
11:53 PM,35.1,34.0,96,30.13,10.0,SSW,4.6,-,N/A,,Overcast,210,2013-12-16 08:53:00